createdAt,value
2019-06-10T00:00:21.837Z,22.98
2019-06-10T00:02:51.730Z,23.04
2019-06-10T00:05:22.333Z,23.10
2019-06-10T00:07:52.815Z,23.09
2019-06-10T00:10:23.376Z,23.17
2019-06-10T00:12:55.386Z,22.98
2019-06-10T00:15:25.913Z,22.96
2019-06-10T00:18:20.890Z,23.08
2019-06-10T00:20:30.595Z,23.06
2019-06-10T00:23:02.516Z,23.03
2019-06-10T00:25:32.894Z,22.94
2019-06-10T00:28:05.642Z,23.09
2019-06-10T00:30:35.735Z,22.82
2019-06-10T00:33:07.694Z,22.89
2019-06-10T00:35:40.932Z,22.92
2019-06-10T00:38:13.953Z,22.83
2019-06-10T00:40:42.885Z,22.82
2019-06-10T00:43:13.712Z,22.92
2019-06-10T00:45:44.172Z,22.93
2019-06-10T00:48:24.997Z,22.88
2019-06-10T00:50:46.892Z,22.95
2019-06-10T00:53:17.391Z,22.92
2019-06-10T00:55:47.879Z,22.89
2019-06-10T00:58:18.344Z,22.95
2019-06-10T01:00:51.448Z,23.01
2019-06-10T01:03:21.081Z,23.12
2019-06-10T01:05:51.653Z,23.06
2019-06-10T01:08:22.136Z,23.06
2019-06-10T01:10:52.656Z,22.85
2019-06-10T01:13:23.149Z,22.98
2019-06-10T01:15:53.732Z,23.09
2019-06-10T01:18:34.429Z,23.06
2019-06-10T01:20:56.373Z,22.95
2019-06-10T01:23:26.816Z,23.17
2019-06-10T01:25:57.315Z,23.15
2019-06-10T01:28:27.773Z,23.13
2019-06-10T01:30:58.279Z,23.13
2019-06-10T01:33:28.799Z,23.15
2019-06-10T01:36:00.742Z,23.11
2019-06-10T01:38:31.753Z,23.02
2019-06-10T01:41:02.247Z,23.05
2019-06-10T01:43:32.839Z,22.91
2019-06-10T01:46:03.289Z,22.84
2019-06-10T01:48:43.964Z,22.86
2019-06-10T01:51:07.135Z,23.02
2019-06-10T01:53:37.644Z,23.03
2019-06-10T01:56:08.232Z,23.04
2019-06-10T01:58:40.665Z,23.16
2019-06-10T02:01:32.797Z,22.93
2019-06-10T02:04:03.245Z,22.98
2019-06-10T02:06:33.731Z,23.06
2019-06-10T02:09:05.920Z,23.12
2019-06-10T02:11:37.056Z,23.15
2019-06-10T02:14:07.943Z,23.12
2019-06-10T02:16:38.493Z,23.16
2019-06-10T02:19:11.465Z,23.35
2019-06-10T02:21:41.683Z,23.07
2019-06-10T02:24:14.358Z,23.28
2019-06-10T02:26:44.554Z,23.37
2019-06-10T02:29:16.133Z,23.29
2019-06-10T02:31:47.322Z,23.35
2019-06-10T02:34:22.982Z,23.25
2019-06-10T02:36:53.438Z,23.07
2019-06-10T02:39:30.619Z,23.08
2019-06-10T02:41:57.385Z,22.99
2019-06-10T02:44:33.239Z,23.06
2019-06-10T02:47:03.141Z,22.96
2019-06-10T02:49:51.514Z,22.79
2019-06-10T02:52:20.135Z,22.91
2019-06-10T02:54:53.359Z,22.89
2019-06-10T02:57:29.696Z,22.88
2019-06-10T02:59:54.754Z,22.86
2019-06-10T03:02:31.223Z,22.75
2019-06-10T03:04:57.405Z,22.83
2019-06-10T03:07:31.135Z,22.92
2019-06-10T03:10:00.052Z,22.96
2019-06-10T03:12:32.934Z,22.99
2019-06-10T03:15:02.723Z,22.92
2019-06-10T03:17:33.175Z,22.90
2019-06-10T03:20:03.756Z,23.00
2019-06-10T03:22:34.214Z,22.79
2019-06-10T03:25:05.160Z,22.96
2019-06-10T03:27:35.651Z,23.04
2019-06-10T03:30:15.817Z,23.02
2019-06-10T03:32:42.696Z,23.06
2019-06-10T03:35:13.257Z,23.05
2019-06-10T03:37:43.516Z,22.88
2019-06-10T03:40:14.099Z,22.86
2019-06-10T03:42:44.595Z,22.88
2019-06-10T03:45:15.560Z,23.00
2019-06-10T03:47:46.041Z,23.03
2019-06-10T03:50:17.219Z,23.12
2019-06-10T03:52:47.759Z,23.13
2019-06-10T03:55:19.298Z,23.23
2019-06-10T03:57:49.868Z,23.36
2019-06-10T04:00:21.947Z,23.27
2019-06-10T04:02:53.218Z,23.18
2019-06-10T04:05:25.405Z,23.28
2019-06-10T04:07:56.040Z,23.36
2019-06-10T04:10:29.168Z,23.39
2019-06-10T04:12:58.804Z,23.42
2019-06-10T04:15:29.614Z,23.61
2019-06-10T04:18:03.983Z,23.70
2019-06-10T04:20:33.825Z,23.66
2019-06-10T04:23:04.304Z,23.57
2019-06-10T04:25:36.224Z,23.46
2019-06-10T04:28:06.782Z,23.61
2019-06-10T04:30:37.311Z,23.60
2019-06-10T04:33:07.772Z,23.71
2019-06-10T04:35:38.264Z,23.80
2019-06-10T04:38:09.152Z,23.71
2019-06-10T04:40:39.603Z,23.87
2019-06-10T04:43:12.299Z,24.00
2019-06-10T04:45:43.037Z,24.10
2019-06-10T04:48:13.502Z,24.08
2019-06-10T04:50:46.438Z,24.18
2019-06-10T04:53:16.226Z,24.25
2019-06-10T04:55:46.682Z,24.20
2019-06-10T04:58:17.179Z,24.25
2019-06-10T05:00:52.376Z,24.42
2019-06-10T05:03:23.845Z,24.51
2019-06-10T05:05:54.765Z,24.56
2019-06-10T05:08:26.900Z,24.55
2019-06-10T05:10:57.464Z,24.67
2019-06-10T05:13:28.365Z,24.73
2019-06-10T05:16:00.335Z,24.69
2019-06-10T05:18:33.000Z,24.78
2019-06-10T05:21:03.256Z,24.57
2019-06-10T05:23:33.729Z,24.62
2019-06-10T05:26:04.420Z,24.22
2019-06-10T05:28:47.022Z,24.70
2019-06-10T05:31:17.764Z,24.34
2019-06-10T05:33:48.277Z,24.91
2019-06-10T05:36:20.612Z,24.88
2019-06-10T05:38:52.559Z,25.03
2019-06-10T05:41:24.898Z,24.90
2019-06-10T05:43:55.484Z,25.00
2019-06-10T05:46:27.296Z,25.09
2019-06-10T05:48:58.251Z,24.86
2019-06-10T05:51:30.663Z,24.91
2019-06-10T05:54:02.449Z,24.94
2019-06-10T05:56:35.705Z,24.89
2019-06-10T05:59:06.652Z,24.52
2019-06-10T06:01:38.704Z,24.40
2019-06-10T06:04:09.268Z,24.94
2019-06-10T06:06:41.781Z,24.79
2019-06-10T06:09:12.922Z,24.80
2019-06-10T06:11:52.454Z,24.79
2019-06-10T06:14:23.184Z,24.65
2019-06-10T06:16:53.669Z,24.64
2019-06-10T06:19:24.207Z,24.65
2019-06-10T06:21:54.854Z,24.80
2019-06-10T06:24:25.592Z,24.95
2019-06-10T06:26:56.181Z,25.15
2019-06-10T06:29:26.906Z,25.15
2019-06-10T06:31:57.575Z,25.27
2019-06-10T06:34:28.432Z,25.40
2019-06-10T06:36:58.938Z,25.45
2019-06-10T06:39:29.444Z,25.86
2019-06-10T06:42:02.228Z,25.92
2019-06-10T06:44:33.538Z,25.44
2019-06-10T06:47:04.566Z,26.13
2019-06-10T06:49:36.716Z,26.08
2019-06-10T06:52:07.657Z,26.18
2019-06-10T06:54:39.432Z,26.41
2019-06-10T06:57:10.103Z,26.68
2019-06-10T06:59:43.053Z,26.83
2019-06-10T07:02:12.828Z,26.83
2019-06-10T07:04:43.707Z,26.85
2019-06-10T07:07:15.832Z,27.17
2019-06-10T07:09:48.713Z,27.24
2019-06-10T07:12:23.025Z,27.47
2019-06-10T07:14:54.222Z,27.41
2019-06-10T07:17:32.005Z,27.30
2019-06-10T07:20:03.250Z,27.27
2019-06-10T07:22:36.476Z,27.10
2019-06-10T07:25:06.849Z,26.90
2019-06-10T07:27:39.051Z,27.02
2019-06-10T07:30:12.526Z,27.25
2019-06-10T07:32:46.847Z,26.88
2019-06-10T07:35:14.392Z,27.47
2019-06-10T07:37:46.091Z,27.29
2019-06-10T07:40:16.897Z,27.27
2019-06-10T07:42:47.404Z,27.07
2019-06-10T07:45:18.138Z,26.86
2019-06-10T07:47:48.618Z,26.92
2019-06-10T07:50:19.399Z,26.87
2019-06-10T07:52:49.950Z,27.07
2019-06-10T07:55:22.208Z,27.10
2019-06-10T07:57:53.174Z,27.22
2019-06-10T08:00:24.075Z,27.25
2019-06-10T08:02:54.645Z,27.25
2019-06-10T08:05:25.140Z,27.39
2019-06-10T08:07:55.686Z,27.29
2019-06-10T08:10:26.343Z,27.29
2019-06-10T08:12:56.849Z,27.08
2019-06-10T08:15:27.469Z,27.24
2019-06-10T08:17:57.957Z,27.39
2019-06-10T08:20:47.724Z,27.46
2019-06-10T08:23:20.017Z,27.02
2019-06-10T08:25:56.594Z,27.54
2019-06-10T08:28:23.285Z,27.62
2019-06-10T08:30:53.942Z,27.77
2019-06-10T08:33:24.508Z,27.87
2019-06-10T08:36:00.244Z,27.49
2019-06-10T08:38:27.439Z,27.48
2019-06-10T08:40:57.983Z,27.70
2019-06-10T08:43:28.670Z,27.64
2019-06-10T08:45:59.242Z,27.72
2019-06-10T08:48:29.751Z,27.77
2019-06-10T08:51:00.356Z,27.64
2019-06-10T08:53:33.072Z,27.79
2019-06-10T08:56:03.267Z,27.90
2019-06-10T08:58:33.875Z,27.91
2019-06-10T09:01:04.830Z,28.00
2019-06-10T09:03:35.381Z,28.20
2019-06-10T09:06:06.057Z,27.98
2019-06-10T09:08:39.543Z,28.11
2019-06-10T09:11:08.821Z,28.17
2019-06-10T09:13:40.752Z,28.17
2019-06-10T09:16:18.907Z,28.23
2019-06-10T09:18:47.481Z,28.52
2019-06-10T09:21:16.253Z,28.48
2019-06-10T09:23:51.522Z,28.48
2019-06-10T09:26:19.214Z,28.50
2019-06-10T09:28:53.788Z,28.47
2019-06-10T09:31:23.863Z,28.37
2019-06-10T09:33:56.976Z,28.66
2019-06-10T09:36:27.046Z,28.59
2019-06-10T09:38:57.580Z,28.73
2019-06-10T09:41:39.461Z,28.51
2019-06-10T09:44:00.311Z,28.51
2019-06-10T09:46:33.256Z,28.48
2019-06-10T09:49:05.650Z,28.50
2019-06-10T09:51:36.270Z,28.45
2019-06-10T09:54:07.116Z,28.52
2019-06-10T09:56:37.687Z,28.46
2019-06-10T09:59:12.537Z,28.64
2019-06-10T10:01:47.223Z,28.89
2019-06-10T10:04:15.517Z,29.07
2019-06-10T10:06:48.955Z,29.12
2019-06-10T10:09:18.678Z,28.76
2019-06-10T10:11:51.331Z,28.90
2019-06-10T10:14:23.100Z,28.72
2019-06-10T10:16:59.180Z,28.77
2019-06-10T10:19:26.752Z,29.10
2019-06-10T10:21:58.562Z,29.34
2019-06-10T10:24:29.397Z,29.58
2019-06-10T10:27:02.671Z,29.58
2019-06-10T10:29:32.878Z,29.67
2019-06-10T10:32:03.820Z,29.65
2019-06-10T10:34:34.315Z,29.92
2019-06-10T10:37:04.833Z,30.24
2019-06-10T10:39:35.420Z,30.60
2019-06-10T10:42:06.068Z,30.54
2019-06-10T10:44:36.648Z,30.85
2019-06-10T10:47:07.194Z,30.71
2019-06-10T10:49:37.672Z,30.46
2019-06-10T10:52:08.200Z,30.75
2019-06-10T10:54:38.664Z,30.70
2019-06-10T10:57:09.185Z,30.64
2019-06-10T10:59:39.666Z,30.49
2019-06-10T11:02:12.577Z,30.78
2019-06-10T11:04:46.605Z,31.13
2019-06-10T11:07:18.400Z,31.30
2019-06-10T11:09:50.330Z,31.32
2019-06-10T11:12:24.321Z,31.54
2019-06-10T11:15:00.442Z,31.53
2019-06-10T11:17:27.617Z,31.58
2019-06-10T11:19:58.219Z,31.63
2019-06-10T11:22:28.713Z,32.02
2019-06-10T11:24:59.190Z,31.78
2019-06-10T11:27:30.846Z,31.99
2019-06-10T11:30:02.757Z,32.29
2019-06-10T11:32:33.274Z,32.28
2019-06-10T11:35:04.208Z,31.98
2019-06-10T11:37:34.685Z,31.67
2019-06-10T11:40:05.844Z,31.57
2019-06-10T11:42:36.564Z,31.13
2019-06-10T11:45:08.295Z,30.71
2019-06-10T11:47:38.773Z,30.73
2019-06-10T11:50:12.145Z,30.82
2019-06-10T11:52:43.291Z,31.18
2019-06-10T11:55:18.997Z,31.00
2019-06-10T11:57:47.790Z,30.95
2019-06-10T12:00:18.751Z,31.01
2019-06-10T12:02:50.926Z,30.78
2019-06-10T12:05:23.545Z,30.57
2019-06-10T12:07:57.603Z,30.54
2019-06-10T12:10:26.865Z,29.88
2019-06-10T12:13:00.850Z,29.94
2019-06-10T12:15:34.767Z,29.79
2019-06-10T12:18:08.266Z,29.83
2019-06-10T12:20:34.279Z,29.75
2019-06-10T12:23:04.953Z,29.77
2019-06-10T12:25:39.514Z,29.57
2019-06-10T12:28:08.109Z,29.46
2019-06-10T12:30:42.199Z,28.87
2019-06-10T12:33:20.009Z,28.34
2019-06-10T12:35:44.485Z,27.04
2019-06-10T12:38:15.113Z,26.28
2019-06-10T12:40:45.620Z,26.28
2019-06-10T12:43:16.145Z,27.39
2019-06-10T12:45:46.619Z,27.22
2019-06-10T12:48:17.148Z,27.35
2019-06-10T12:50:47.904Z,27.25
2019-06-10T12:53:18.493Z,27.08
2019-06-10T12:55:48.977Z,26.85
2019-06-10T12:58:19.617Z,26.64
2019-06-10T13:00:50.294Z,26.67
2019-06-10T13:03:23.791Z,26.78
2019-06-10T13:05:57.666Z,26.64
2019-06-10T13:08:33.152Z,26.55
2019-06-10T13:11:04.119Z,26.64
2019-06-10T13:13:34.717Z,26.65
2019-06-10T13:16:08.271Z,26.60
2019-06-10T13:18:37.771Z,26.84
2019-06-10T13:21:13.350Z,27.15
2019-06-10T13:23:42.905Z,27.32
2019-06-10T13:26:16.490Z,27.51
2019-06-10T13:28:45.346Z,27.76
2019-06-10T13:31:15.858Z,27.90
2019-06-10T13:33:46.423Z,28.08
2019-06-10T13:36:17.138Z,28.12
2019-06-10T13:38:47.683Z,28.22
2019-06-10T13:41:18.495Z,28.37
2019-06-10T13:43:49.008Z,28.54
2019-06-10T13:46:19.501Z,28.72
2019-06-10T13:48:52.178Z,28.93
2019-06-10T13:51:22.303Z,28.87
2019-06-10T13:53:53.705Z,28.87
2019-06-10T13:56:43.260Z,29.00
2019-06-10T13:58:56.492Z,29.32
2019-06-10T14:01:27.320Z,29.20
2019-06-10T14:03:57.820Z,29.53
2019-06-10T14:06:45.480Z,29.53
2019-06-10T14:09:01.647Z,29.54
2019-06-10T14:11:33.976Z,29.50
2019-06-10T14:14:05.810Z,29.58
2019-06-10T14:16:36.437Z,29.77
2019-06-10T14:19:09.170Z,29.87
2019-06-10T14:21:39.273Z,29.62
2019-06-10T14:24:10.980Z,29.77
2019-06-10T14:26:45.320Z,29.69
2019-06-10T14:29:16.157Z,29.84
2019-06-10T14:31:47.871Z,29.98
2019-06-10T14:34:18.976Z,30.07
2019-06-10T14:36:49.500Z,29.94
2019-06-10T14:39:22.125Z,30.10
2019-06-10T14:41:52.425Z,30.00
2019-06-10T14:44:23.451Z,29.79
2019-06-10T14:46:54.153Z,29.69
2019-06-10T14:49:24.654Z,29.72
2019-06-10T14:51:55.112Z,29.83
2019-06-10T14:54:25.716Z,29.80
2019-06-10T14:56:57.327Z,29.80
2019-06-10T14:59:28.048Z,29.77
2019-06-10T15:01:58.510Z,29.75
2019-06-10T15:04:29.112Z,29.79
2019-06-10T15:06:59.578Z,29.81
2019-06-10T15:09:30.094Z,29.82
2019-06-10T15:12:02.685Z,29.74
2019-06-10T15:14:32.748Z,29.52
2019-06-10T15:17:03.273Z,29.54
2019-06-10T15:19:33.720Z,29.34
2019-06-10T15:22:04.289Z,29.34
2019-06-10T15:24:34.796Z,29.45
2019-06-10T15:27:13.034Z,29.45
2019-06-10T15:29:37.591Z,29.48
2019-06-10T15:32:17.104Z,29.41
2019-06-10T15:34:40.238Z,29.41
2019-06-10T15:37:11.768Z,29.39
2019-06-10T15:39:42.913Z,29.18
2019-06-10T15:42:13.564Z,29.18
2019-06-10T15:44:52.049Z,29.16
2019-06-10T15:47:19.456Z,29.16
2019-06-10T15:49:48.505Z,29.24
2019-06-10T15:52:21.935Z,29.26
2019-06-10T15:54:52.584Z,29.29
2019-06-10T15:57:38.899Z,29.29
2019-06-10T15:59:58.616Z,29.29
2019-06-10T16:02:29.131Z,29.38
2019-06-10T16:04:59.640Z,29.39
2019-06-10T16:07:32.484Z,29.40
2019-06-10T16:10:02.852Z,29.29
2019-06-10T16:12:33.468Z,29.29
2019-06-10T16:15:04.051Z,29.34
2019-06-10T16:17:34.528Z,29.44
2019-06-10T16:20:05.568Z,29.41
2019-06-10T16:22:36.064Z,29.40
2019-06-10T16:25:07.027Z,29.35
2019-06-10T16:27:47.407Z,29.00
2019-06-10T16:30:13.090Z,29.00
2019-06-10T16:32:46.408Z,28.67
2019-06-10T16:35:16.788Z,28.46
2019-06-10T16:37:47.316Z,28.53
2019-06-10T16:40:19.186Z,28.53
2019-06-10T16:42:49.683Z,28.25
2019-06-10T16:45:26.930Z,28.35
2019-06-10T16:47:53.326Z,28.31
2019-06-10T16:50:26.946Z,28.10
2019-06-10T16:52:56.120Z,28.09
2019-06-10T16:55:27.271Z,27.60
2019-06-10T16:57:59.569Z,27.75
2019-06-10T17:00:31.493Z,27.90
2019-06-10T17:03:02.498Z,27.69
2019-06-10T17:05:33.206Z,27.56
2019-06-10T17:08:04.364Z,27.63
2019-06-10T17:10:34.868Z,27.40
2019-06-10T17:13:07.525Z,27.24
2019-06-10T17:15:38.132Z,27.21
2019-06-10T17:18:08.799Z,27.13
2019-06-10T17:20:39.289Z,27.19
2019-06-10T17:23:28.006Z,27.02
2019-06-10T17:25:58.310Z,27.10
2019-06-10T17:28:33.894Z,26.86
2019-06-10T17:31:03.479Z,26.87
2019-06-10T17:33:35.629Z,26.77
2019-06-10T17:36:05.676Z,26.68
2019-06-10T17:38:36.139Z,26.57
2019-06-10T17:41:06.631Z,26.36
2019-06-10T17:43:37.115Z,26.32
2019-06-10T17:46:07.571Z,26.24
2019-06-10T17:48:38.082Z,26.18
2019-06-10T17:51:08.580Z,26.26
2019-06-10T17:53:39.069Z,26.22
2019-06-10T17:56:09.574Z,26.06
2019-06-10T17:58:51.602Z,25.89
2019-06-10T18:01:12.952Z,25.92
2019-06-10T18:03:43.549Z,25.76
2019-06-10T18:06:14.160Z,25.77
2019-06-10T18:08:44.615Z,25.80
2019-06-10T18:11:15.067Z,25.85
2019-06-10T18:13:45.569Z,25.85
2019-06-10T18:16:16.029Z,25.72
2019-06-10T18:18:46.533Z,25.72
2019-06-10T18:21:16.987Z,25.66
2019-06-10T18:23:47.472Z,25.67
2019-06-10T18:26:17.928Z,25.59
2019-06-10T18:29:08.155Z,25.61
2019-06-10T18:31:23.124Z,25.58
2019-06-10T18:33:53.155Z,25.51
2019-06-10T18:36:24.459Z,25.58
2019-06-10T18:38:55.113Z,25.62
2019-06-10T18:41:25.602Z,25.66
2019-06-10T18:43:56.059Z,25.66
2019-06-10T18:46:27.951Z,25.59
2019-06-10T18:48:58.512Z,25.57
2019-06-10T18:51:31.988Z,25.45
2019-06-10T18:54:02.407Z,25.40
2019-06-10T18:56:35.309Z,25.33
2019-06-10T18:59:16.460Z,25.32
2019-06-10T19:01:38.690Z,25.38
2019-06-10T19:04:09.290Z,25.30
2019-06-10T19:06:39.924Z,25.47
2019-06-10T19:09:12.794Z,25.45
2019-06-10T19:11:43.496Z,25.45
2019-06-10T19:14:14.040Z,25.45
2019-06-10T19:16:44.500Z,25.38
2019-06-10T19:19:14.970Z,25.26
2019-06-10T19:22:01.501Z,25.24
2019-06-10T19:24:17.625Z,24.98
2019-06-10T19:26:48.096Z,24.94
2019-06-10T19:29:30.747Z,25.00
2019-06-10T19:31:52.648Z,25.17
2019-06-10T19:34:22.907Z,25.22
2019-06-10T19:36:53.393Z,25.27
2019-06-10T19:39:23.851Z,25.28
2019-06-10T19:41:54.357Z,25.31
2019-06-10T19:44:24.815Z,25.33
2019-06-10T19:46:55.280Z,25.33
2019-06-10T19:49:25.760Z,25.31
2019-06-10T19:51:56.212Z,25.29
2019-06-10T19:54:26.704Z,25.28
2019-06-10T19:56:57.164Z,25.23
2019-06-10T19:59:27.685Z,25.22
2019-06-10T20:01:58.155Z,25.14
2019-06-10T20:04:28.647Z,25.00
2019-06-10T20:06:59.209Z,24.98
2019-06-10T20:09:29.698Z,24.83
2019-06-10T20:12:02.232Z,24.79
2019-06-10T20:14:32.375Z,24.78
2019-06-10T20:17:03.295Z,24.74
2019-06-10T20:19:33.974Z,24.70
2019-06-10T20:22:04.530Z,24.06
2019-06-10T20:24:36.316Z,24.60
2019-06-10T20:27:06.788Z,24.54
2019-06-10T20:29:37.849Z,24.52
2019-06-10T20:32:08.322Z,24.47
2019-06-10T20:34:39.267Z,24.47
2019-06-10T20:37:09.814Z,24.45
2019-06-10T20:39:42.721Z,24.40
2019-06-10T20:42:12.914Z,24.38
2019-06-10T20:44:45.910Z,24.36
2019-06-10T20:47:15.700Z,24.33
2019-06-10T20:49:49.499Z,24.34
2019-06-10T20:52:18.357Z,24.28
2019-06-10T20:54:50.063Z,24.27
2019-06-10T20:57:22.647Z,24.26
2019-06-10T20:59:52.752Z,24.21
2019-06-10T21:02:26.420Z,24.11
2019-06-10T21:04:58.321Z,24.02
2019-06-10T21:07:29.104Z,24.02
2019-06-10T21:10:02.766Z,23.98
2019-06-10T21:12:33.480Z,23.88
2019-06-10T21:15:04.049Z,23.84
2019-06-10T21:17:34.538Z,23.82
2019-06-10T21:20:05.469Z,23.59
2019-06-10T21:22:35.896Z,23.43
2019-06-10T21:25:06.601Z,22.95
2019-06-10T21:27:37.106Z,23.48
2019-06-10T21:30:11.676Z,23.56
2019-06-10T21:32:41.716Z,23.59
2019-06-10T21:35:12.143Z,23.60
2019-06-10T21:37:45.223Z,23.66
2019-06-10T21:40:15.184Z,23.56
2019-06-10T21:42:45.854Z,23.64
2019-06-10T21:45:18.037Z,23.56
2019-06-10T21:47:48.592Z,23.60
2019-06-10T21:50:19.325Z,23.64
2019-06-10T21:52:51.099Z,23.67
2019-06-10T21:55:22.540Z,23.68
2019-06-10T21:57:55.132Z,23.67
2019-06-10T22:00:32.152Z,23.63
2019-06-10T22:03:02.582Z,23.57
2019-06-10T22:05:33.210Z,23.53
2019-06-10T22:08:03.765Z,23.47
2019-06-10T22:10:34.209Z,23.45
2019-06-10T22:13:04.788Z,23.30
2019-06-10T22:15:35.223Z,23.27
2019-06-10T22:18:05.901Z,23.23
2019-06-10T22:20:36.462Z,23.22
2019-06-10T22:23:06.930Z,23.17
2019-06-10T22:25:37.439Z,23.14
2019-06-10T22:28:08.074Z,23.08
2019-06-10T22:30:38.503Z,23.05
2019-06-10T22:33:08.944Z,23.00
2019-06-10T22:35:39.384Z,22.82
2019-06-10T22:38:09.863Z,22.80
2019-06-10T22:40:42.462Z,22.75
2019-06-10T22:43:13.037Z,22.73
2019-06-10T22:45:43.562Z,22.77
2019-06-10T22:48:14.049Z,22.69
2019-06-10T22:50:44.534Z,22.74
2019-06-10T22:53:14.961Z,22.70
2019-06-10T22:55:45.406Z,22.62
2019-06-10T22:58:15.926Z,22.56
2019-06-10T23:00:46.806Z,22.48
2019-06-10T23:03:18.509Z,22.47
2019-06-10T23:05:50.285Z,22.50
2019-06-10T23:08:22.832Z,22.47
2019-06-10T23:10:55.022Z,22.51
2019-06-10T23:13:25.199Z,22.44
2019-06-10T23:15:57.933Z,22.37
2019-06-10T23:18:27.859Z,22.15
2019-06-10T23:20:59.680Z,22.20
2019-06-10T23:23:32.615Z,22.26
2019-06-10T23:26:03.142Z,22.24
2019-06-10T23:28:33.639Z,22.27
2019-06-10T23:31:05.339Z,22.47
2019-06-10T23:33:36.051Z,22.47
2019-06-10T23:36:06.540Z,22.49
2019-06-10T23:38:36.993Z,22.52
2019-06-10T23:41:07.471Z,22.59
2019-06-10T23:43:37.950Z,22.58
2019-06-10T23:46:08.410Z,22.67
2019-06-10T23:48:38.898Z,22.70
2019-06-10T23:51:09.388Z,22.65
2019-06-10T23:53:39.876Z,22.33
2019-06-10T23:56:12.692Z,22.49
2019-06-10T23:58:43.298Z,22.42
